Boxboro, Massachusetts
Current Conditions -  °F | °C
As of 4:56 PM on Friday 24 Oct 2014 (Local Time) from KBED Reporting Station
Overcast Overcast  
Wind Chill: 51°   Ceiling: 2600
Heat Index: 51°   Visibility: 10mi
Dew Point: 43°   Wind: 10mph
Humidity: 74%   Direction: 320°NW
Pressure: 29.7"   Gusts: NA
Location:  42.4884°N, 71.5177°W
Report Text: KBED 242056Z 32009KT 10SM OVC026 11/06 A2970 RMK AO2 SLP069 T01060061 53004 $
Loading
Personal Weather Stations






























Interactive Weather Map
Tropical Storm Tracking
New forecast layout! Learn more

10-Day Weather Forecast

Advertisements
Track Severe Weather on mobile